Time;durP1;ratioP1;P1;durP2;ratioP2;P2;SDS_P1;SDS_P2;PMS_P1;PMS_P2;Temp;Humidity;BMP_temperature;BMP_pressure;BME280_temperature;BME280_humidity;BME280_pressure;Samples;Min_cycle;Max_cycle;Signal;HPM_P1;HPM_P2
2022/05/09 00:01:50;;;;;;;7.10;5.90;;;8.20;99.90;;;;;;4198951;28;20842;-70
2022/05/09 00:03:51;;;;;;;7.43;5.47;;;8.10;99.90;;;;;;4198599;28;20226;-70
2022/05/09 00:05:51;;;;;;;7.53;5.87;;;8.10;99.90;;;;;;4199121;28;20728;-71
2022/05/09 00:07:53;;;;;;;8.23;6.20;;;8.00;99.90;;;;;;4198584;28;20273;-71
2022/05/09 00:09:54;;;;;;;9.73;6.47;;;8.00;99.90;;;;;;4198566;28;20642;-70
2022/05/09 00:11:54;;;;;;;7.90;5.87;;;8.00;99.90;;;;;;4198815;28;20439;-70
2022/05/09 00:13:55;;;;;;;7.97;6.47;;;8.00;99.90;;;;;;4198783;28;20509;-71
2022/05/09 00:15:56;;;;;;;8.07;5.93;;;7.90;99.90;;;;;;4199176;28;20261;-70
2022/05/09 00:17:56;;;;;;;7.70;5.87;;;7.90;99.90;;;;;;4198873;28;20234;-70
2022/05/09 00:19:56;;;;;;;7.23;5.73;;;7.80;99.90;;;;;;4198584;28;20713;-72
2022/05/09 00:21:57;;;;;;;7.00;5.57;;;7.70;99.90;;;;;;4198705;28;20206;-71
2022/05/09 00:23:58;;;;;;;6.87;5.57;;;7.70;99.90;;;;;;4198369;28;20285;-70
2022/05/09 00:25:58;;;;;;;6.83;5.43;;;7.70;99.90;;;;;;4198659;28;20654;-71
2022/05/09 00:27:59;;;;;;;7.70;5.53;;;7.70;99.90;;;;;;4198856;28;20708;-71
2022/05/09 00:29:59;;;;;;;8.37;5.73;;;7.60;99.90;;;;;;4199323;28;20202;-71
2022/05/09 00:32:00;;;;;;;7.63;6.20;;;7.60;99.90;;;;;;4199307;28;20188;-71
2022/05/09 00:34:00;;;;;;;6.63;5.20;;;7.50;99.90;;;;;;4198995;28;20272;-70
2022/05/09 00:36:01;;;;;;;7.63;5.33;;;7.50;99.90;;;;;;4198860;28;20716;-70
2022/05/09 00:38:02;;;;;;;7.73;5.87;;;7.50;99.90;;;;;;4199050;28;20184;-70
2022/05/09 00:40:08;;;;;;;7.50;5.50;;;7.50;99.90;;;;;;4198759;28;20279;-71
2022/05/09 00:42:12;;;;;;;7.80;6.07;;;7.50;99.90;;;;;;4198833;28;20187;-71
2022/05/09 00:44:26;;;;;;;7.07;5.17;;;7.50;99.90;;;;;;4197828;28;20476;-71
2022/05/09 00:46:28;;;;;;;7.53;5.67;;;7.40;99.90;;;;;;4198098;28;20413;-70
2022/05/09 00:48:29;;;;;;;7.00;5.70;;;7.40;99.90;;;;;;4197117;28;20927;-71
2022/05/09 00:50:32;;;;;;;7.80;5.83;;;7.40;99.90;;;;;;4198103;28;20496;-71
2022/05/09 00:52:40;;;;;;;6.90;5.77;;;7.40;99.90;;;;;;4196331;28;20414;-71
2022/05/09 00:54:50;;;;;;;8.60;5.97;;;7.30;99.90;;;;;;4198356;28;20406;-71
2022/05/09 00:57:00;;;;;;;7.93;6.03;;;7.30;99.90;;;;;;4198287;28;20786;-71
2022/05/09 00:59:08;;;;;;;6.90;5.70;;;7.30;99.90;;;;;;4198240;28;20413;-70
2022/05/09 01:01:11;;;;;;;8.27;6.83;;;7.20;99.90;;;;;;4198886;28;20453;-70
2022/05/09 01:03:18;;;;;;;7.87;6.50;;;7.20;99.90;;;;;;4198674;28;20465;-71
2022/05/09 01:05:19;;;;;;;6.60;5.73;;;7.30;99.90;;;;;;4197656;28;20504;-71
2022/05/09 01:07:21;;;;;;;7.80;6.00;;;7.30;99.90;;;;;;4197374;28;20449;-71
2022/05/09 01:09:22;;;;;;;7.60;6.00;;;7.30;99.90;;;;;;4197527;28;20183;-70
2022/05/09 01:11:26;;;;;;;8.60;7.10;;;7.30;99.90;;;;;;4198851;28;20504;-70
2022/05/09 01:13:32;;;;;;;8.03;6.43;;;8.20;99.90;;;;;;4198346;28;20175;-71
2022/05/09 01:15:33;;;;;;;8.63;7.07;;;7.30;99.90;;;;;;4197598;28;20417;-71
2022/05/09 01:17:39;;;;;;;8.90;7.03;;;7.30;99.90;;;;;;4197557;28;20836;-70
2022/05/09 01:19:42;;;;;;;9.07;6.83;;;7.30;99.90;;;;;;4197093;28;20418;-70
2022/05/09 01:21:43;;;;;;;10.17;7.47;;;7.30;99.90;;;;;;4198412;28;20928;-70
2022/05/09 01:23:43;;;;;;;11.90;7.70;;;7.30;99.90;;;;;;4198395;28;20469;-71
2022/05/09 01:25:44;;;;;;;10.33;6.03;;;7.30;99.90;;;;;;4197233;28;20183;-70
2022/05/09 01:27:47;;;;;;;8.90;7.20;;;7.30;99.90;;;;;;4197572;28;20184;-71
2022/05/09 01:30:08;;;;;;;9.27;5.97;;;7.30;99.90;;;;;;4198399;28;20556;-70
2022/05/09 01:32:11;;;;;;;9.60;6.57;;;7.30;99.90;;;;;;4198258;28;20829;-71
2022/05/09 01:34:14;;;;;;;9.63;6.40;;;7.20;99.90;;;;;;4197734;28;20456;-71
2022/05/09 01:36:18;;;;;;;9.07;6.77;;;7.20;99.90;;;;;;4196202;28;20421;-71
2022/05/09 01:38:33;;;;;;;8.90;6.63;;;7.20;99.90;;;;;;4197101;28;20520;-71
2022/05/09 01:40:33;;;;;;;8.60;6.40;;;7.20;99.90;;;;;;4182007;28;20448;-71
2022/05/09 01:42:35;;;;;;;9.27;6.67;;;7.10;99.90;;;;;;4180955;28;20913;-71
2022/05/09 01:44:37;;;;;;;9.30;6.63;;;7.10;99.90;;;;;;4179994;28;20188;-71
2022/05/09 01:49:29;;;;;;;7.33;5.80;;;7.10;99.90;;;;;;4181018;28;20410;-71
2022/05/09 01:51:20;;;;;;;8.67;6.17;;;7.10;99.90;;;;;;4180013;28;20556;-71
2022/05/09 01:53:20;;;;;;;8.87;6.10;;;7.10;99.90;;;;;;4180565;28;20800;-71
2022/05/09 01:55:21;;;;;;;8.20;6.03;;;7.10;99.90;;;;;;4179204;28;20188;-71
2022/05/09 01:57:21;;;;;;;9.67;6.67;;;7.10;99.90;;;;;;4180920;28;20184;-71
2022/05/09 01:59:22;;;;;;;8.40;6.30;;;7.00;99.90;;;;;;4180606;28;20635;-70
2022/05/09 02:01:26;;;;;;;8.57;6.67;;;7.00;99.90;;;;;;4179977;28;20204;-71
2022/05/09 02:03:26;;;;;;;10.43;6.90;;;7.00;99.90;;;;;;4180792;28;20486;-71
2022/05/09 02:05:27;;;;;;;7.77;5.47;;;6.90;99.90;;;;;;4180450;28;20415;-70
2022/05/09 02:07:27;;;;;;;8.60;6.23;;;6.90;99.90;;;;;;4181246;28;20184;-71
2022/05/09 02:09:28;;;;;;;7.97;6.30;;;6.90;99.90;;;;;;4181020;28;20195;-71
2022/05/09 02:11:28;;;;;;;7.30;5.70;;;6.90;99.90;;;;;;4181162;28;20168;-71
2022/05/09 02:13:29;;;;;;;7.93;5.87;;;6.90;99.90;;;;;;4180730;28;20175;-71
2022/05/09 02:15:31;;;;;;;9.27;7.20;;;7.00;99.90;;;;;;4179924;28;20215;-71
2022/05/09 02:17:32;;;;;;;10.83;7.40;;;7.00;99.90;;;;;;4186617;28;20238;-71
2022/05/09 02:19:32;;;;;;;12.20;8.67;;;7.10;99.90;;;;;;4197165;28;20414;-71
2022/05/09 02:21:34;;;;;;;13.17;9.00;;;7.10;99.90;;;;;;4197149;28;20205;-71
2022/05/09 02:23:34;;;;;;;13.00;8.90;;;7.00;99.90;;;;;;4197728;28;20203;-71
2022/05/09 02:25:36;;;;;;;10.37;6.90;;;7.00;99.90;;;;;;4197230;28;20791;-70
2022/05/09 02:27:36;;;;;;;11.07;7.93;;;7.00;99.90;;;;;;4197453;28;20281;-71
2022/05/09 02:29:42;;;;;;;10.10;7.60;;;7.00;99.90;;;;;;4196375;28;20426;-72
2022/05/09 02:31:42;;;;;;;12.27;7.53;;;6.90;99.90;;;;;;4196933;28;20195;-71
2022/05/09 02:33:43;;;;;;;10.47;7.43;;;6.90;99.90;;;;;;4196356;28;20441;-70
2022/05/09 02:35:44;;;;;;;13.47;8.60;;;6.90;99.90;;;;;;4196611;28;20188;-71
2022/05/09 02:37:45;;;;;;;12.83;8.43;;;6.90;99.90;;;;;;4197550;28;20175;-71
2022/05/09 02:39:46;;;;;;;9.97;6.90;;;6.90;99.90;;;;;;4197698;28;20521;-71
2022/05/09 02:41:46;;;;;;;9.90;7.40;;;6.90;99.90;;;;;;4196991;28;20179;-72
2022/05/09 02:43:47;;;;;;;9.47;7.23;;;6.90;99.90;;;;;;4196798;28;20548;-71
2022/05/09 02:45:48;;;;;;;9.97;7.30;;;6.80;99.90;;;;;;4196163;28;20214;-70
2022/05/09 02:47:49;;;;;;;10.60;7.53;;;6.90;99.90;;;;;;4197046;28;20202;-71
2022/05/09 02:49:49;;;;;;;9.87;7.27;;;6.80;99.90;;;;;;4196013;28;20681;-72
2022/05/09 02:51:51;;;;;;;10.80;7.13;;;6.80;99.90;;;;;;4196712;28;20220;-71
2022/05/09 02:53:52;;;;;;;12.07;8.50;;;6.80;99.90;;;;;;4197295;28;20183;-71
2022/05/09 02:55:53;;;;;;;12.10;7.93;;;6.80;99.90;;;;;;4196597;28;20417;-71
2022/05/09 02:57:53;;;;;;;11.43;8.10;;;6.80;99.90;;;;;;4197355;28;20803;-72
2022/05/09 02:59:54;;;;;;;9.17;7.13;;;6.80;99.90;;;;;;4195291;28;20291;-71
2022/05/09 03:01:54;;;;;;;10.47;8.00;;;6.90;99.90;;;;;;4195128;28;20643;-71
2022/05/09 03:06:14;;;;;;;15.60;8.77;;;6.80;99.90;;;;;;4194629;28;20685;-71
2022/05/09 03:08:17;;;;;;;13.53;9.30;;;6.80;99.90;;;;;;4195113;28;20923;-71
2022/05/09 03:10:18;;;;;;;13.83;9.53;;;6.80;99.90;;;;;;4195200;28;20430;-71
2022/05/09 03:12:19;;;;;;;13.13;9.17;;;6.80;99.90;;;;;;4195105;28;20433;-71
2022/05/09 03:14:20;;;;;;;13.47;9.17;;;6.80;99.90;;;;;;4195100;28;20206;-71
2022/05/09 03:16:20;;;;;;;12.10;8.50;;;6.80;99.90;;;;;;4194457;28;20916;-71
2022/05/09 03:18:25;;;;;;;12.67;8.53;;;6.90;99.90;;;;;;4195157;28;20180;-71
2022/05/09 03:20:25;;;;;;;13.50;9.47;;;6.80;99.90;;;;;;4194859;28;20207;-71
2022/05/09 03:22:26;;;;;;;13.07;8.80;;;6.90;99.90;;;;;;4195417;28;20820;-71
2022/05/09 03:24:27;;;;;;;12.57;8.53;;;6.80;99.90;;;;;;4196774;28;20744;-71
2022/05/09 03:26:27;;;;;;;10.97;7.50;;;6.80;99.90;;;;;;4194709;28;20218;-71
2022/05/09 03:28:28;;;;;;;11.83;7.93;;;6.70;99.90;;;;;;4195225;28;20199;-71
2022/05/09 03:30:30;;;;;;;11.67;7.87;;;6.60;99.90;;;;;;4195201;28;20202;-71
2022/05/09 03:32:31;;;;;;;9.80;6.77;;;6.50;99.90;;;;;;4195296;28;20303;-71
2022/05/09 03:34:31;;;;;;;11.70;7.47;;;6.50;99.90;;;;;;4195552;28;20421;-71
2022/05/09 03:36:32;;;;;;;9.27;7.67;;;6.50;99.90;;;;;;4194837;28;20176;-73
2022/05/09 03:38:33;;;;;;;11.03;7.90;;;6.50;99.90;;;;;;4195424;28;20198;-71
2022/05/09 03:40:34;;;;;;;10.27;7.83;;;6.40;99.90;;;;;;4195481;28;20278;-72
2022/05/09 03:42:35;;;;;;;12.00;8.37;;;6.40;99.90;;;;;;4195380;28;20429;-71
2022/05/09 03:44:35;;;;;;;11.43;7.50;;;6.40;99.90;;;;;;4194768;28;20183;-72
2022/05/09 03:46:36;;;;;;;14.67;8.13;;;6.40;99.90;;;;;;4194675;28;20194;-71
2022/05/09 03:48:36;;;;;;;10.50;6.90;;;6.40;99.90;;;;;;4195490;28;20171;-71
2022/05/09 03:50:37;;;;;;;11.63;8.37;;;6.40;99.90;;;;;;4195284;28;20548;-71
2022/05/09 03:52:37;;;;;;;11.47;7.57;;;6.40;99.90;;;;;;4195073;28;20185;-71
2022/05/09 03:54:38;;;;;;;10.30;7.67;;;6.40;99.90;;;;;;4195011;28;20255;-71
2022/05/09 03:56:39;;;;;;;10.80;7.10;;;6.40;99.90;;;;;;4194732;28;20582;-71
2022/05/09 03:58:40;;;;;;;11.37;8.40;;;6.40;99.90;;;;;;4196520;28;20249;-72
2022/05/09 04:00:40;;;;;;;12.00;8.43;;;6.40;99.90;;;;;;4198020;28;20210;-71
2022/05/09 04:02:42;;;;;;;8.33;7.20;;;6.40;99.90;;;;;;4197691;28;20453;-71
2022/05/09 04:04:43;;;;;;;10.37;7.67;;;6.40;99.90;;;;;;4197939;28;20182;-71
2022/05/09 04:06:43;;;;;;;10.20;7.73;;;6.40;99.90;;;;;;4197453;28;20461;-71
2022/05/09 04:08:44;;;;;;;9.13;6.87;;;6.30;99.90;;;;;;4197882;28;20180;-71
2022/05/09 04:10:45;;;;;;;9.83;7.03;;;6.40;99.90;;;;;;4197937;28;20953;-71
2022/05/09 04:12:46;;;;;;;8.93;7.00;;;6.40;99.90;;;;;;4197666;28;20266;-71
2022/05/09 04:17:06;;;;;;;9.20;6.77;;;6.30;99.90;;;;;;4197135;28;20227;-71
2022/05/09 04:19:06;;;;;;;10.90;7.33;;;6.30;99.90;;;;;;4197864;28;20471;-70
2022/05/09 04:21:09;;;;;;;10.43;7.67;;;6.40;99.90;;;;;;4197211;28;20491;-71
2022/05/09 04:23:10;;;;;;;12.00;7.83;;;6.50;99.90;;;;;;4196583;28;20215;-71
2022/05/09 04:25:12;;;;;;;13.03;8.63;;;6.50;99.90;;;;;;4195174;28;20522;-71
2022/05/09 04:27:12;;;;;;;14.70;8.53;;;6.50;99.90;;;;;;4195954;28;20179;-71
2022/05/09 04:29:13;;;;;;;12.47;8.77;;;6.50;99.90;;;;;;4196303;28;20525;-71
2022/05/09 04:31:13;;;;;;;10.83;7.73;;;6.60;99.90;;;;;;4196421;28;20811;-71
2022/05/09 04:33:14;;;;;;;11.27;8.03;;;6.60;99.90;;;;;;4199016;28;20190;-71
2022/05/09 04:35:19;;;;;;;13.43;8.90;;;6.60;99.90;;;;;;4197635;28;20180;-71
2022/05/09 04:37:20;;;;;;;11.17;7.87;;;6.60;99.90;;;;;;4198146;28;20444;-71
2022/05/09 04:39:21;;;;;;;9.63;7.50;;;6.60;99.90;;;;;;4198217;28;20448;-71
2022/05/09 04:41:22;;;;;;;12.00;7.90;;;6.70;99.90;;;;;;4199428;28;20223;-71
2022/05/09 04:43:24;;;;;;;11.20;8.17;;;6.70;99.90;;;;;;4200036;28;20345;-71
2022/05/09 04:45:27;;;;;;;9.73;7.13;;;6.70;99.90;;;;;;4198917;28;20481;-71
2022/05/09 04:47:28;;;;;;;8.30;6.90;;;6.70;99.90;;;;;;4199365;28;20440;-70
2022/05/09 04:49:28;;;;;;;11.50;7.70;;;6.70;99.90;;;;;;4197702;28;20528;-71
2022/05/09 04:51:29;;;;;;;12.03;8.13;;;6.70;99.90;;;;;;4195821;28;20180;-71
2022/05/09 04:53:29;;;;;;;9.70;7.07;;;6.80;99.90;;;;;;4195861;28;20184;-71
2022/05/09 04:55:30;;;;;;;12.13;7.67;;;6.80;99.90;;;;;;4195354;28;20175;-71
2022/05/09 04:57:30;;;;;;;9.63;8.20;;;6.90;99.90;;;;;;4195889;28;20171;-71
2022/05/09 04:59:31;;;;;;;10.53;7.00;;;6.90;99.90;;;;;;4195816;28;20192;-71
2022/05/09 05:01:31;;;;;;;8.50;6.77;;;6.90;99.90;;;;;;4195757;28;20205;-71
2022/05/09 05:03:32;;;;;;;9.20;6.50;;;7.00;99.90;;;;;;4195745;28;20527;-71
2022/05/09 05:05:33;;;;;;;9.93;6.90;;;7.00;99.90;;;;;;4195188;28;20186;-71
2022/05/09 05:07:33;;;;;;;8.13;6.53;;;7.00;99.90;;;;;;4195927;28;20237;-71
2022/05/09 05:09:35;;;;;;;9.10;6.80;;;7.10;99.90;;;;;;4195410;28;20175;-71
2022/05/09 05:11:36;;;;;;;8.50;6.53;;;7.00;99.90;;;;;;4195803;28;20666;-71
2022/05/09 05:13:36;;;;;;;9.47;7.43;;;7.00;99.90;;;;;;4195854;28;20410;-71
2022/05/09 05:15:37;;;;;;;8.27;6.70;;;7.10;99.90;;;;;;4195086;28;21173;-71
2022/05/09 05:17:37;;;;;;;9.00;6.90;;;7.20;99.90;;;;;;4195568;28;20183;-71
2022/05/09 05:19:42;;;;;;;10.37;7.40;;;7.20;99.90;;;;;;4195502;28;20183;-71
2022/05/09 05:21:43;;;;;;;11.47;8.00;;;7.40;99.90;;;;;;4195369;28;20701;-71
2022/05/09 05:23:44;;;;;;;11.23;8.47;;;7.40;99.90;;;;;;4195493;28;20465;-71
2022/05/09 05:25:45;;;;;;;11.57;7.70;;;7.50;99.90;;;;;;4194770;28;20493;-71
2022/05/09 05:27:47;;;;;;;10.67;8.00;;;7.50;99.90;;;;;;4195343;28;20180;-71
2022/05/09 05:29:56;;;;;;;9.90;7.60;;;7.60;99.90;;;;;;4195214;28;20431;-71
2022/05/09 05:31:57;;;;;;;11.03;7.93;;;7.60;99.90;;;;;;4195156;28;20410;-71
2022/05/09 05:33:58;;;;;;;12.43;8.37;;;7.60;99.90;;;;;;4195343;28;20553;-71
2022/05/09 05:35:58;;;;;;;13.20;9.37;;;7.70;99.90;;;;;;4194266;28;20176;-71
2022/05/09 05:37:59;;;;;;;10.87;7.60;;;7.70;99.90;;;;;;4195308;28;20180;-71
2022/05/09 05:40:00;;;;;;;12.23;8.13;;;7.80;99.90;;;;;;4195460;28;20209;-71
2022/05/09 05:42:01;;;;;;;12.37;8.30;;;7.90;99.90;;;;;;4195483;28;20533;-71
2022/05/09 05:44:02;;;;;;;11.43;8.73;;;7.90;99.90;;;;;;4195116;28;20553;-71
2022/05/09 05:46:02;;;;;;;14.10;9.47;;;8.00;99.90;;;;;;4194587;28;20177;-71
2022/05/09 05:48:03;;;;;;;13.57;9.10;;;8.10;99.90;;;;;;4195106;28;20444;-71
2022/05/09 05:50:10;;;;;;;14.03;9.83;;;8.20;99.90;;;;;;4195146;28;20254;-71
2022/05/09 05:52:11;;;;;;;12.10;9.20;;;8.30;99.90;;;;;;4195206;28;20173;-71
2022/05/09 05:54:12;;;;;;;10.97;8.67;;;8.40;99.90;;;;;;4194971;28;20181;-72
2022/05/09 05:56:13;;;;;;;12.63;10.10;;;8.40;99.90;;;;;;4194524;28;20420;-71
2022/05/09 05:58:13;;;;;;;15.00;9.50;;;8.50;99.90;;;;;;4195060;28;20717;-71
2022/05/09 06:00:18;;;;;;;12.83;8.97;;;8.50;99.90;;;;;;4194747;28;20197;-71
2022/05/09 06:02:19;;;;;;;13.80;9.90;;;8.60;99.90;;;;;;4194939;28;20730;-71
2022/05/09 06:04:21;;;;;;;11.90;9.77;;;8.70;99.90;;;;;;4194815;28;20211;-71
2022/05/09 06:06:21;;;;;;;12.67;9.33;;;8.80;99.90;;;;;;4193151;28;20186;-71
2022/05/09 06:08:22;;;;;;;15.70;8.97;;;8.90;99.90;;;;;;4195199;28;20187;-71
2022/05/09 06:10:23;;;;;;;15.07;10.60;;;8.90;99.90;;;;;;4194761;28;20199;-71
2022/05/09 06:12:23;;;;;;;16.93;10.47;;;9.00;99.90;;;;;;4194981;28;20518;-71
2022/05/09 06:14:24;;;;;;;12.63;9.67;;;9.10;99.90;;;;;;4194751;28;20204;-71
2022/05/09 06:16:25;;;;;;;11.73;9.73;;;9.20;99.90;;;;;;4194285;28;20209;-71
2022/05/09 06:18:25;;;;;;;11.97;9.80;;;9.20;99.90;;;;;;4194470;28;20450;-71
2022/05/09 06:20:30;;;;;;;13.13;10.17;;;9.30;99.90;;;;;;4194382;28;20215;-71
2022/05/09 06:22:30;;;;;;;12.33;8.60;;;9.40;99.90;;;;;;4193931;28;20191;-71
2022/05/09 06:24:31;;;;;;;11.57;9.33;;;9.60;99.90;;;;;;4194352;28;20294;-71
2022/05/09 06:26:32;;;;;;;14.03;10.20;;;9.60;99.90;;;;;;4193671;28;20169;-71
2022/05/09 06:28:33;;;;;;;14.17;9.20;;;9.70;99.90;;;;;;4194413;28;20188;-71
2022/05/09 06:30:34;;;;;;;16.87;10.37;;;9.90;99.90;;;;;;4194459;28;20203;-71
2022/05/09 06:32:35;;;;;;;13.40;9.97;;;9.90;99.90;;;;;;4194174;28;20172;-71
2022/05/09 06:34:35;;;;;;;15.00;9.40;;;9.90;99.90;;;;;;4194578;28;20534;-71
2022/05/09 06:36:36;;;;;;;13.00;9.23;;;10.10;99.90;;;;;;4193945;28;20186;-69
2022/05/09 06:38:36;;;;;;;13.53;9.50;;;10.30;99.90;;;;;;4194500;28;20186;-71
2022/05/09 06:40:37;;;;;;;11.83;8.67;;;10.40;99.90;;;;;;4194237;28;20608;-71
2022/05/09 06:42:38;;;;;;;10.20;8.37;;;10.60;99.90;;;;;;4194573;28;20192;-71
2022/05/09 06:44:38;;;;;;;11.83;8.90;;;10.60;99.90;;;;;;4193275;28;20211;-71
2022/05/09 06:46:39;;;;;;;10.20;8.27;;;10.70;99.90;;;;;;4194018;28;20695;-71
2022/05/09 06:48:39;;;;;;;10.73;7.77;;;11.00;99.90;;;;;;4194465;28;20175;-71
2022/05/09 06:50:40;;;;;;;10.93;8.03;;;11.00;99.90;;;;;;4194252;28;20204;-71
2022/05/09 06:52:41;;;;;;;9.67;7.27;;;11.30;99.90;;;;;;4193985;28;20252;-71
2022/05/09 06:54:43;;;;;;;8.40;7.13;;;11.50;99.90;;;;;;4194206;28;20229;-71
2022/05/09 06:56:43;;;;;;;8.33;6.93;;;11.40;99.90;;;;;;4193954;28;20245;-71
2022/05/09 06:58:44;;;;;;;9.53;7.10;;;11.50;99.90;;;;;;4194457;28;20168;-71
2022/05/09 07:00:45;;;;;;;9.40;7.47;;;11.60;99.90;;;;;;4194753;28;20214;-71
2022/05/09 07:02:45;;;;;;;9.00;6.80;;;11.90;99.90;;;;;;4195558;28;20183;-71
2022/05/09 07:04:46;;;;;;;10.30;7.03;;;11.90;99.90;;;;;;4194326;28;20179;-71
2022/05/09 07:06:46;;;;;;;8.73;6.50;;;12.00;99.90;;;;;;4193851;28;20880;-71
2022/05/09 07:08:47;;;;;;;8.87;7.10;;;12.20;99.90;;;;;;4194105;28;20176;-71
2022/05/09 07:10:47;;;;;;;9.07;6.67;;;12.40;99.90;;;;;;4194505;28;20199;-71
2022/05/09 07:12:51;;;;;;;7.67;5.57;;;12.60;99.90;;;;;;4194306;28;20221;-70
2022/05/09 07:14:51;;;;;;;8.10;7.20;;;12.70;99.90;;;;;;4194075;28;20183;-71
2022/05/09 07:16:52;;;;;;;6.10;5.17;;;12.90;99.90;;;;;;4193612;28;20179;-71
2022/05/09 07:18:52;;;;;;;9.50;6.53;;;12.90;99.90;;;;;;4194110;28;20180;-71
2022/05/09 07:20:53;;;;;;;7.03;6.13;;;13.00;99.90;;;;;;4193989;28;20955;-71
2022/05/09 07:22:57;;;;;;;7.93;5.67;;;13.00;99.00;;;;;;4194319;28;20176;-71
2022/05/09 07:24:58;;;;;;;7.93;6.13;;;13.20;99.10;;;;;;4193905;28;20198;-71
2022/05/09 07:26:59;;;;;;;5.80;5.00;;;13.40;99.10;;;;;;4193468;28;20175;-71
2022/05/09 07:28:59;;;;;;;8.13;6.30;;;13.50;99.60;;;;;;4194226;28;20175;-71
2022/05/09 07:31:00;;;;;;;8.50;5.60;;;13.40;97.50;;;;;;4194127;28;20723;-71
2022/05/09 07:33:02;;;;;;;7.93;5.60;;;13.50;97.20;;;;;;4195976;28;20183;-71
2022/05/09 07:35:03;;;;;;;7.40;5.93;;;13.80;97.20;;;;;;4196795;28;20309;-71
2022/05/09 07:37:04;;;;;;;7.37;5.80;;;13.90;95.50;;;;;;4196849;28;20194;-71
2022/05/09 07:39:05;;;;;;;5.27;4.77;;;14.10;95.10;;;;;;4212796;28;20764;-71
2022/05/09 07:41:05;;;;;;;7.17;5.60;;;14.20;94.80;;;;;;4197206;28;20199;-71
2022/05/09 07:43:14;;;;;;;6.20;5.50;;;14.40;96.10;;;;;;4197098;28;20203;-71
2022/05/09 07:45:18;;;;;;;8.03;6.40;;;14.70;96.20;;;;;;4197168;28;20175;-71
2022/05/09 07:47:18;;;;;;;6.43;5.33;;;14.80;95.00;;;;;;4196673;28;20167;-71
2022/05/09 07:49:19;;;;;;;7.43;5.10;;;14.60;92.50;;;;;;4197169;28;20651;-71
2022/05/09 07:51:20;;;;;;;6.33;5.13;;;14.70;92.50;;;;;;4196961;28;20221;-71
2022/05/09 07:53:27;;;;;;;7.10;5.20;;;14.80;92.80;;;;;;4196953;28;20255;-71
2022/05/09 07:55:27;;;;;;;6.80;5.43;;;14.70;91.90;;;;;;4196473;28;20206;-71
2022/05/09 07:57:28;;;;;;;7.83;5.83;;;14.50;93.10;;;;;;4197011;28;20168;-71
2022/05/09 07:59:29;;;;;;;6.23;5.60;;;14.70;93.00;;;;;;4196864;28;20180;-71
2022/05/09 08:01:30;;;;;;;6.03;4.90;;;14.90;92.10;;;;;;4196921;28;20258;-71
2022/05/09 08:03:33;;;;;;;6.30;4.93;;;15.00;91.80;;;;;;4196655;28;20242;-71
2022/05/09 08:05:34;;;;;;;7.57;4.87;;;15.20;93.00;;;;;;4196512;28;20814;-71
2022/05/09 08:07:34;;;;;;;6.10;5.50;;;15.30;90.60;;;;;;4196953;28;20180;-71
2022/05/09 08:09:35;;;;;;;5.37;4.50;;;15.40;90.10;;;;;;4196825;28;20551;-71
2022/05/09 08:11:36;;;;;;;8.30;4.97;;;15.50;87.70;;;;;;4196791;28;20176;-71
2022/05/09 08:13:38;;;;;;;7.77;4.90;;;15.30;89.50;;;;;;4196780;28;20171;-71
2022/05/09 08:15:39;;;;;;;4.60;4.20;;;15.50;86.90;;;;;;4196034;28;20176;-71
2022/05/09 08:17:39;;;;;;;5.57;4.10;;;15.60;88.70;;;;;;4196609;28;20180;-71
2022/05/09 08:19:40;;;;;;;5.27;4.77;;;16.30;85.60;;;;;;4196669;28;20834;-71
2022/05/09 08:21:41;;;;;;;5.00;4.47;;;16.20;82.50;;;;;;4196971;28;20248;-71
2022/05/09 08:23:41;;;;;;;5.73;4.33;;;16.50;84.00;;;;;;4196689;28;20208;-71
2022/05/09 08:25:43;;;;;;;5.63;4.70;;;16.50;80.60;;;;;;4195856;28;20176;-71
2022/05/09 08:27:44;;;;;;;5.50;4.90;;;16.90;82.60;;;;;;4196565;28;20183;-71
2022/05/09 08:29:45;;;;;;;5.30;4.40;;;17.00;76.70;;;;;;4196745;28;20192;-71
2022/05/09 08:31:45;;;;;;;5.07;4.47;;;16.80;76.60;;;;;;4195104;28;20183;-71
2022/05/09 08:33:47;;;;;;;4.87;4.37;;;16.70;79.50;;;;;;4196512;28;20681;-71
2022/05/09 08:35:50;;;;;;;6.33;5.67;;;16.70;78.90;;;;;;4196323;28;20184;-71
2022/05/09 08:37:51;;;;;;;5.47;4.90;;;17.10;75.70;;;;;;4196274;28;20171;-71
2022/05/09 08:39:52;;;;;;;6.23;5.10;;;17.40;75.80;;;;;;4196274;28;20697;-71
2022/05/09 08:42:06;;;;;;;5.70;4.83;;;17.80;76.30;;;;;;4196521;28;20183;-71
2022/05/09 08:44:20;;;;;;;4.63;3.93;;;17.50;71.80;;;;;;4195823;28;20678;-70
2022/05/09 08:46:28;;;;;;;5.03;4.53;;;17.20;74.10;;;;;;4195808;28;20210;-71
2022/05/09 08:48:52;;;;;;;10.77;5.03;;;17.40;72.50;;;;;;4196282;28;20175;-71
2022/05/09 08:50:57;;;;;;;5.83;4.70;;;17.40;77.00;;;;;;4196216;28;20274;-71
2022/05/09 08:52:59;;;;;;;6.17;4.17;;;17.30;78.00;;;;;;4194672;28;20199;-70
2022/05/09 08:55:01;;;;;;;6.97;4.57;;;17.60;73.80;;;;;;4196080;28;20168;-71
2022/05/09 08:57:07;;;;;;;5.43;4.67;;;17.80;72.10;;;;;;4195439;28;20186;-71
2022/05/09 08:59:13;;;;;;;5.03;4.37;;;18.10;70.90;;;;;;4196116;28;20589;-71
2022/05/09 09:01:22;;;;;;;6.13;4.60;;;18.20;67.40;;;;;;4196047;28;20192;-71
2022/05/09 09:03:33;;;;;;;5.87;4.63;;;17.90;69.90;;;;;;4196026;28;20268;-71
2022/05/09 09:05:36;;;;;;;5.30;4.17;;;18.40;70.60;;;;;;4195549;28;20209;-72
2022/05/09 09:07:55;;;;;;;6.57;4.70;;;18.70;65.50;;;;;;4196051;28;20171;-71
2022/05/09 09:10:13;;;;;;;5.10;4.10;;;18.20;66.80;;;;;;4195829;28;20199;-71
2022/05/09 09:12:29;;;;;;;5.43;4.67;;;18.00;66.00;;;;;;4196046;28;20167;-70
2022/05/09 09:15:02;;;;;;;4.97;4.47;;;18.00;68.10;;;;;;4195905;28;20190;-70
2022/05/09 09:17:08;;;;;;;4.57;4.13;;;18.70;65.20;;;;;;4195396;28;20180;-70
2022/05/09 09:19:18;;;;;;;5.40;4.80;;;18.50;64.10;;;;;;4195903;28;20233;-70
2022/05/09 09:21:34;;;;;;;5.13;4.63;;;18.20;68.00;;;;;;4194341;28;20215;-70
2022/05/09 09:23:59;;;;;;;5.20;4.67;;;18.30;68.50;;;;;;4195721;28;20561;-70
2022/05/09 09:26:20;;;;;;;6.60;4.73;;;18.80;67.10;;;;;;4194820;28;20171;-70
2022/05/09 09:28:28;;;;;;;5.37;4.37;;;19.50;63.00;;;;;;4195694;28;20194;-70
2022/05/09 09:30:30;;;;;;;5.37;4.47;;;19.60;60.00;;;;;;4194911;28;20199;-70
2022/05/09 09:32:31;;;;;;;5.07;3.83;;;19.90;59.50;;;;;;4195477;28;20705;-70
2022/05/09 09:34:31;;;;;;;4.60;4.10;;;19.80;59.50;;;;;;4195556;28;20172;-70
2022/05/09 09:36:41;;;;;;;4.77;4.27;;;19.70;60.00;;;;;;4194693;28;20670;-71
2022/05/09 09:39:19;;;;;;;4.83;4.20;;;20.00;57.20;;;;;;4195511;28;20186;-71
2022/05/09 09:41:31;;;;;;;4.93;3.83;;;20.10;57.50;;;;;;4142960;28;20659;-70
2022/05/09 09:43:31;;;;;;;6.30;4.33;;;19.50;58.70;;;;;;4195774;28;20213;-70
2022/05/09 09:45:50;;;;;;;4.77;4.27;;;19.20;59.70;;;;;;4195031;28;20609;-70
2022/05/09 09:48:13;;;;;;;4.83;3.83;;;18.90;61.10;;;;;;4195670;28;20179;-70
2022/05/09 09:50:25;;;;;;;4.63;4.10;;;19.00;58.50;;;;;;4195411;28;20575;-70
2022/05/09 09:52:31;;;;;;;4.90;4.40;;;18.90;60.30;;;;;;4195060;28;20187;-70
2022/05/09 09:54:34;;;;;;;4.37;3.97;;;19.20;59.50;;;;;;4195195;28;20237;-70
2022/05/09 09:56:36;;;;;;;4.20;3.80;;;19.40;60.80;;;;;;4194462;28;20304;-70
2022/05/09 09:58:38;;;;;;;4.40;4.00;;;19.80;59.90;;;;;;4194901;28;20188;-70
2022/05/09 10:00:39;;;;;;;6.83;4.80;;;20.00;58.40;;;;;;4194960;28;20200;-70
2022/05/09 10:02:40;;;;;;;4.80;4.40;;;19.70;59.20;;;;;;4195012;28;20178;-70
2022/05/09 10:04:41;;;;;;;4.60;4.20;;;20.10;58.40;;;;;;4194872;28;20643;-70
2022/05/09 10:07:13;;;;;;;4.37;3.70;;;20.10;56.40;;;;;;4194385;28;20175;-70
2022/05/09 10:09:19;;;;;;;5.13;3.70;;;20.50;54.10;;;;;;4193956;28;20649;-70
2022/05/09 10:11:20;;;;;;;5.13;4.63;;;20.40;56.60;;;;;;4195175;28;20195;-69
2022/05/09 10:13:22;;;;;;;4.87;4.37;;;19.80;59.40;;;;;;4195116;28;20194;-69
2022/05/09 10:15:34;;;;;;;4.27;3.70;;;19.80;61.00;;;;;;4194181;28;20673;-70
2022/05/09 10:17:35;;;;;;;5.23;4.47;;;20.40;58.90;;;;;;4195035;28;20172;-70
2022/05/09 10:19:37;;;;;;;4.80;4.20;;;21.10;53.90;;;;;;4194692;28;20194;-69
2022/05/09 10:26:27;;;;;;;4.60;3.90;;;20.30;53.00;;;;;;4194119;28;20182;-69
2022/05/09 10:28:31;;;;;;;5.33;4.33;;;19.90;55.80;;;;;;4194816;28;20600;-69
2022/05/09 10:30:35;;;;;;;3.70;3.40;;;19.30;58.30;;;;;;4194434;28;20202;-69
2022/05/09 10:32:51;;;;;;;4.97;4.47;;;19.30;60.40;;;;;;4194657;28;20249;-69
2022/05/09 10:35:10;;;;;;;4.30;3.90;;;19.20;62.00;;;;;;4194823;28;20187;-69
2022/05/09 10:37:23;;;;;;;4.77;4.10;;;19.90;59.00;;;;;;4194305;28;20590;-69
2022/05/09 10:39:36;;;;;;;4.90;4.40;;;20.90;57.60;;;;;;4194698;28;20553;-70
2022/05/09 10:41:52;;;;;;;8.00;4.37;;;21.70;53.10;;;;;;4194807;28;20185;-69
2022/05/09 10:43:58;;;;;;;4.63;3.43;;;21.00;52.50;;;;;;4197296;28;20203;-69
2022/05/09 10:46:04;;;;;;;4.33;3.83;;;21.20;52.20;;;;;;4195048;28;20179;-69
2022/05/09 10:48:29;;;;;;;4.60;3.77;;;21.80;51.20;;;;;;4194627;28;20172;-69
2022/05/09 10:50:41;;;;;;;3.63;3.33;;;22.20;48.50;;;;;;4195149;28;20200;-69
2022/05/09 10:53:06;;;;;;;4.07;3.77;;;21.70;48.90;;;;;;4194807;28;20640;-69
2022/05/09 10:55:17;;;;;;;3.90;3.43;;;21.50;50.20;;;;;;4194633;28;20172;-69